createdAt,value
2022-12-18T00:00:32.923Z,3.72
2022-12-18T00:04:21.928Z,3.08
2022-12-18T00:08:11.915Z,2.65
2022-12-18T00:11:24.050Z,2.90
2022-12-18T00:15:05.556Z,3.72
2022-12-18T00:18:43.174Z,2.53
2022-12-18T00:22:21.063Z,4.32
2022-12-18T00:26:02.324Z,3.42
2022-12-18T00:29:42.581Z,3.37
2022-12-18T00:33:16.999Z,4.07
2022-12-18T00:36:55.855Z,2.95
2022-12-18T00:40:13.632Z,3.67
2022-12-18T00:43:37.131Z,3.42
2022-12-18T00:47:04.906Z,3.58
2022-12-18T00:50:29.643Z,2.78
2022-12-18T00:54:21.228Z,2.58
2022-12-18T00:58:02.908Z,2.33
2022-12-18T01:01:24.896Z,4.85
2022-12-18T01:08:24.770Z,4.97
2022-12-18T01:11:56.451Z,3.47
2022-12-18T01:15:30.725Z,4.90
2022-12-18T01:19:11.554Z,3.33
2022-12-18T01:22:42.703Z,4.35
2022-12-18T01:26:48.986Z,4.70
2022-12-18T01:30:16.982Z,3.78
2022-12-18T01:33:54.306Z,2.62
2022-12-18T01:36:58.049Z,3.70
2022-12-18T01:40:00.810Z,4.03
2022-12-18T01:43:47.576Z,4.53
2022-12-18T01:47:04.977Z,4.28
2022-12-18T01:50:44.669Z,3.97
2022-12-18T01:54:13.981Z,3.53
2022-12-18T01:57:33.594Z,4.15
2022-12-18T02:01:16.950Z,3.45
2022-12-18T02:05:14.218Z,3.37
2022-12-18T02:09:13.768Z,3.78
2022-12-18T02:13:16.789Z,2.83
2022-12-18T02:17:05.150Z,2.45
2022-12-18T02:20:37.664Z,3.28
2022-12-18T02:24:47.557Z,3.37
2022-12-18T02:28:29.465Z,4.62
2022-12-18T02:31:57.424Z,3.50
2022-12-18T02:35:42.785Z,4.57
2022-12-18T02:39:15.410Z,3.95
2022-12-18T02:42:44.216Z,2.60
2022-12-18T02:46:26.995Z,2.95
2022-12-18T02:50:06.941Z,3.37
2022-12-18T02:54:00.264Z,3.70
2022-12-18T02:57:41.061Z,3.22
2022-12-18T03:01:18.465Z,4.78
2022-12-18T03:05:15.634Z,4.75
2022-12-18T03:08:52.414Z,3.45
2022-12-18T03:12:32.793Z,3.53
2022-12-18T03:16:01.544Z,3.17
2022-12-18T03:19:25.741Z,5.45
2022-12-18T03:22:54.865Z,2.83
2022-12-18T03:26:36.519Z,1.77
2022-12-18T03:30:16.179Z,3.22
2022-12-18T03:34:01.074Z,3.03
2022-12-18T03:37:56.972Z,2.35
2022-12-18T03:41:34.035Z,2.55
2022-12-18T03:45:16.778Z,3.15
2022-12-18T03:48:48.699Z,2.10
2022-12-18T03:52:38.460Z,3.10
2022-12-18T03:55:44.093Z,3.70
2022-12-18T03:59:28.523Z,3.80
2022-12-18T04:03:12.592Z,4.55
2022-12-18T04:06:54.560Z,3.75
2022-12-18T04:10:02.865Z,2.60
2022-12-18T04:13:36.401Z,3.17
2022-12-18T04:17:19.310Z,4.85
2022-12-18T04:20:53.774Z,3.22
2022-12-18T04:24:23.473Z,3.35
2022-12-18T04:27:58.963Z,3.58
2022-12-18T04:31:44.225Z,3.22
2022-12-18T04:34:52.633Z,3.12
2022-12-18T04:38:28.380Z,4.03
2022-12-18T04:42:00.022Z,4.35
2022-12-18T04:45:24.659Z,3.50
2022-12-18T04:49:02.532Z,4.57
2022-12-18T04:52:33.431Z,2.75
2022-12-18T04:55:36.819Z,2.80
2022-12-18T04:59:06.241Z,2.58
2022-12-18T05:02:40.471Z,3.47
2022-12-18T05:05:46.930Z,2.22
2022-12-18T05:09:04.603Z,2.47
2022-12-18T05:12:59.984Z,1.50
2022-12-18T05:16:43.304Z,3.78
2022-12-18T05:20:39.612Z,3.00
2022-12-18T05:24:00.815Z,1.87
2022-12-18T05:27:29.580Z,2.65
2022-12-18T05:31:05.588Z,3.97
2022-12-18T05:34:40.600Z,3.60
2022-12-18T05:38:14.825Z,3.37
2022-12-18T05:41:47.736Z,2.72
2022-12-18T05:45:07.159Z,3.80
2022-12-18T05:48:43.907Z,5.07
2022-12-18T05:52:22.405Z,3.00
2022-12-18T05:55:50.270Z,5.50
2022-12-18T05:59:09.139Z,3.62
2022-12-18T06:02:28.051Z,4.25
2022-12-18T06:06:02.157Z,3.90
2022-12-18T06:09:44.016Z,4.03
2022-12-18T06:13:14.523Z,5.15
2022-12-18T06:16:34.558Z,2.45
2022-12-18T06:20:09.243Z,2.28
2022-12-18T06:23:38.257Z,4.47
2022-12-18T06:26:44.307Z,2.60
2022-12-18T06:30:12.483Z,4.87
2022-12-18T06:33:55.532Z,3.22
2022-12-18T06:37:12.860Z,5.30
2022-12-18T06:40:56.595Z,1.75
2022-12-18T06:44:13.678Z,3.10
2022-12-18T06:47:42.614Z,4.45
2022-12-18T06:51:14.284Z,6.12
2022-12-18T06:55:09.413Z,5.15
2022-12-18T06:58:15.957Z,2.83
2022-12-18T07:02:19.527Z,3.25
2022-12-18T07:05:51.856Z,3.20
2022-12-18T07:09:10.729Z,2.50
2022-12-18T07:12:34.421Z,3.97
2022-12-18T07:16:40.002Z,4.10
2022-12-18T07:20:27.184Z,3.97
2022-12-18T07:23:49.491Z,3.95
2022-12-18T07:27:14.158Z,4.57
2022-12-18T07:30:39.516Z,4.53
2022-12-18T07:34:29.365Z,3.12
2022-12-18T07:38:02.765Z,2.92
2022-12-18T07:41:14.273Z,2.50
2022-12-18T07:45:03.217Z,2.05
2022-12-18T07:49:13.165Z,2.15
2022-12-18T07:52:18.426Z,4.75
2022-12-18T07:56:29.639Z,3.22
2022-12-18T07:59:57.050Z,5.30
2022-12-18T08:03:43.353Z,4.12
2022-12-18T08:07:02.991Z,3.30
2022-12-18T08:10:09.027Z,4.18
2022-12-18T08:13:43.904Z,3.10
2022-12-18T08:17:24.745Z,4.20
2022-12-18T08:20:53.595Z,3.40
2022-12-18T08:24:03.538Z,3.33
2022-12-18T08:28:11.623Z,4.05
2022-12-18T08:31:32.957Z,4.05
2022-12-18T08:35:17.556Z,3.78
2022-12-18T08:38:53.578Z,6.28
2022-12-18T08:42:32.389Z,4.82
2022-12-18T08:46:00.763Z,4.32
2022-12-18T08:49:07.203Z,4.75
2022-12-18T08:52:37.012Z,3.08
2022-12-18T08:56:10.962Z,4.95
2022-12-18T08:59:29.898Z,6.57
2022-12-18T09:03:20.586Z,3.10
2022-12-18T09:06:45.955Z,4.53
2022-12-18T09:10:24.715Z,4.53
2022-12-18T09:13:48.046Z,5.00
2022-12-18T09:17:43.525Z,5.72
2022-12-18T09:21:13.969Z,5.22
2022-12-18T09:24:31.710Z,7.72
2022-12-18T09:27:35.898Z,5.35
2022-12-18T09:31:09.048Z,6.47
2022-12-18T09:34:32.085Z,4.78
2022-12-18T09:37:55.677Z,6.32
2022-12-18T09:41:33.644Z,6.50
2022-12-18T09:45:04.873Z,5.15
2022-12-18T09:48:50.066Z,5.47
2022-12-18T09:52:35.599Z,4.72
2022-12-18T09:59:37.484Z,5.90
2022-12-18T10:03:34.920Z,5.50
2022-12-18T10:07:09.436Z,7.32
2022-12-18T10:10:37.982Z,7.03
2022-12-18T10:14:40.094Z,6.30
2022-12-18T10:18:21.675Z,6.65
2022-12-18T10:21:41.377Z,6.57
2022-12-18T10:25:00.155Z,7.60
2022-12-18T10:28:14.660Z,6.68
2022-12-18T10:31:25.083Z,7.12
2022-12-18T10:34:28.098Z,7.45
2022-12-18T10:37:35.627Z,6.87
2022-12-18T10:41:00.358Z,6.35
2022-12-18T10:44:37.733Z,7.85
2022-12-18T10:47:51.291Z,4.90
2022-12-18T10:51:21.600Z,8.35
2022-12-18T10:54:54.232Z,8.02
2022-12-18T10:58:33.870Z,6.72
2022-12-18T11:01:59.828Z,6.32
2022-12-18T11:05:42.319Z,5.65
2022-12-18T11:09:23.947Z,7.50
2022-12-18T11:12:29.723Z,7.43
2022-12-18T11:15:34.522Z,8.48
2022-12-18T11:18:39.098Z,7.40
2022-12-18T11:21:57.273Z,8.65
2022-12-18T11:28:39.131Z,11.15
2022-12-18T11:31:43.114Z,10.90
2022-12-18T11:35:00.673Z,11.57
2022-12-18T11:38:19.933Z,10.15
2022-12-18T11:42:13.055Z,11.35
2022-12-18T11:45:19.403Z,11.95
2022-12-18T11:48:39.092Z,14.15
2022-12-18T11:52:37.298Z,10.73
2022-12-18T11:55:47.875Z,12.07
2022-12-18T11:59:21.288Z,11.10
2022-12-18T12:02:35.063Z,10.05
2022-12-18T12:05:57.248Z,8.50
2022-12-18T12:09:29.039Z,9.82
2022-12-18T12:12:51.227Z,9.48
2022-12-18T12:16:11.198Z,9.98
2022-12-18T12:20:09.993Z,9.95
2022-12-18T12:27:36.535Z,9.82
2022-12-18T12:31:38.492Z,9.10
2022-12-18T12:43:26.806Z,8.30
2022-12-18T12:46:48.494Z,8.60
2022-12-18T12:50:20.631Z,7.90
2022-12-18T12:53:49.481Z,9.23
2022-12-18T12:58:29.457Z,7.82
2022-12-18T13:02:17.278Z,7.75
2022-12-18T13:06:15.652Z,7.68
2022-12-18T13:10:25.713Z,8.93
2022-12-18T13:13:59.720Z,8.10
2022-12-18T13:17:38.366Z,6.78
2022-12-18T13:21:30.730Z,7.45
2022-12-18T13:25:37.618Z,5.37
2022-12-18T13:29:16.560Z,3.53
2022-12-18T13:32:42.768Z,5.72
2022-12-18T13:36:35.070Z,7.70
2022-12-18T13:40:45.122Z,6.47
2022-12-18T13:44:40.907Z,7.30
2022-12-18T13:48:27.604Z,9.38
2022-12-18T13:52:23.001Z,8.27
2022-12-18T13:55:47.289Z,9.27
2022-12-18T13:59:17.533Z,10.02
2022-12-18T14:03:02.170Z,10.00
2022-12-18T14:06:40.845Z,10.27
2022-12-18T14:13:43.535Z,7.82
2022-12-18T14:17:01.063Z,8.98
2022-12-18T14:20:36.717Z,10.70
2022-12-18T14:24:19.787Z,9.32
2022-12-18T14:28:10.580Z,9.93
2022-12-18T14:31:38.381Z,10.98
2022-12-18T14:35:15.200Z,10.38
2022-12-18T14:38:55.907Z,11.05
2022-12-18T14:42:23.551Z,8.20
2022-12-18T14:45:43.860Z,9.38
2022-12-18T14:49:25.230Z,6.03
2022-12-18T14:56:21.153Z,6.07
2022-12-18T15:00:09.459Z,8.27
2022-12-18T15:03:48.902Z,7.53
2022-12-18T15:07:25.337Z,5.82
2022-12-18T15:11:01.443Z,6.82
2022-12-18T15:14:42.780Z,6.25
2022-12-18T15:18:22.187Z,7.40
2022-12-18T15:21:59.112Z,8.05
2022-12-18T15:25:40.651Z,5.07
2022-12-18T15:29:00.995Z,7.85
2022-12-18T15:32:31.011Z,6.75
2022-12-18T15:36:10.385Z,7.75
2022-12-18T15:39:42.768Z,7.70
2022-12-18T15:43:30.677Z,6.97
2022-12-18T15:50:49.130Z,7.18
2022-12-18T15:58:37.963Z,7.28
2022-12-18T16:02:23.781Z,7.43
2022-12-18T16:06:04.198Z,7.25
2022-12-18T16:09:44.424Z,6.95
2022-12-18T16:13:21.856Z,8.70
2022-12-18T16:17:30.070Z,10.48
2022-12-18T16:21:03.001Z,8.23
2022-12-18T16:24:39.643Z,8.82
2022-12-18T16:28:26.300Z,8.65
2022-12-18T16:32:02.257Z,8.93
2022-12-18T16:35:32.003Z,11.20
2022-12-18T16:38:57.608Z,7.70
2022-12-18T16:42:36.630Z,8.23
2022-12-18T16:46:00.050Z,9.18
2022-12-18T16:49:04.607Z,7.78
2022-12-18T16:52:39.100Z,9.10
2022-12-18T16:56:14.652Z,10.18
2022-12-18T16:59:36.881Z,10.35
2022-12-18T17:03:11.957Z,9.90
2022-12-18T17:06:53.132Z,8.70
2022-12-18T17:10:21.388Z,10.00
2022-12-18T17:13:56.096Z,8.77
2022-12-18T17:17:27.479Z,8.50
2022-12-18T17:20:46.094Z,9.90
2022-12-18T17:24:21.937Z,9.63
2022-12-18T17:27:55.145Z,7.43
2022-12-18T17:31:42.218Z,7.65
2022-12-18T17:35:13.562Z,9.63
2022-12-18T17:39:06.927Z,11.02
2022-12-18T17:42:49.191Z,8.98
2022-12-18T17:50:17.544Z,11.60
2022-12-18T17:54:02.845Z,9.18
2022-12-18T17:58:35.558Z,11.10
2022-12-18T18:02:27.521Z,9.63
2022-12-18T18:06:34.899Z,10.77
2022-12-18T18:10:19.755Z,12.60
2022-12-18T18:18:16.694Z,12.48
2022-12-18T18:21:52.865Z,15.60
2022-12-18T18:25:31.797Z,9.52
2022-12-18T18:36:37.026Z,10.57
2022-12-18T18:41:17.595Z,14.00
2022-12-18T18:45:25.321Z,10.38
2022-12-18T18:48:54.749Z,13.50
2022-12-18T18:52:25.792Z,11.93
2022-12-18T19:03:29.019Z,10.10
2022-12-18T19:07:01.801Z,11.30
2022-12-18T19:10:25.609Z,12.25
2022-12-18T19:17:50.010Z,9.77
2022-12-18T19:21:34.938Z,11.32
2022-12-18T19:25:12.480Z,11.45
2022-12-18T19:28:38.674Z,11.05
2022-12-18T19:31:58.646Z,13.55
2022-12-18T19:35:25.872Z,12.77
2022-12-18T19:39:16.471Z,13.50
2022-12-18T19:42:38.842Z,11.95
2022-12-18T19:46:24.398Z,14.35
2022-12-18T19:49:57.382Z,12.30
2022-12-18T19:53:41.753Z,13.13
2022-12-18T19:56:53.628Z,16.48
2022-12-18T20:00:28.967Z,12.68
2022-12-18T20:04:09.257Z,13.13
2022-12-18T20:07:38.513Z,11.30
2022-12-18T20:11:23.905Z,14.32
2022-12-18T20:18:41.044Z,12.00
2022-12-18T20:22:11.354Z,11.00
2022-12-18T20:26:03.637Z,14.52
2022-12-18T20:29:38.437Z,13.68
2022-12-18T20:36:50.853Z,10.70
2022-12-18T20:40:31.968Z,13.23
2022-12-18T20:44:20.650Z,14.80
2022-12-18T20:47:37.126Z,14.35
2022-12-18T20:51:10.512Z,11.50
2022-12-18T20:54:51.663Z,12.57
2022-12-18T20:58:27.151Z,13.20
2022-12-18T21:02:06.165Z,9.52
2022-12-18T21:05:41.565Z,10.73
2022-12-18T21:09:00.175Z,11.48
2022-12-18T21:12:42.700Z,13.93
2022-12-18T21:16:11.189Z,12.70
2022-12-18T21:19:49.822Z,12.90
2022-12-18T21:23:20.332Z,13.57
2022-12-18T21:26:56.581Z,9.52
2022-12-18T21:30:28.629Z,10.85
2022-12-18T21:34:05.822Z,10.20
2022-12-18T21:37:23.936Z,10.20
2022-12-18T21:40:53.236Z,12.75
2022-12-18T21:44:25.629Z,12.40
2022-12-18T21:48:00.002Z,11.07
2022-12-18T21:51:32.885Z,10.02
2022-12-18T21:55:00.738Z,10.02
2022-12-18T21:58:30.684Z,11.30
2022-12-18T22:02:11.223Z,9.50
2022-12-18T22:05:28.403Z,9.07
2022-12-18T22:09:16.710Z,9.65
2022-12-18T22:12:39.783Z,9.20
2022-12-18T22:16:15.130Z,9.98
2022-12-18T22:23:43.849Z,10.27
2022-12-18T22:27:19.099Z,7.25
2022-12-18T22:31:01.073Z,5.97
2022-12-18T22:34:36.925Z,9.40
2022-12-18T22:38:17.328Z,7.00
2022-12-18T22:41:53.540Z,7.22
2022-12-18T22:45:24.021Z,7.57
2022-12-18T22:48:50.497Z,6.80
2022-12-18T22:51:55.611Z,9.57
2022-12-18T22:55:28.510Z,6.95
2022-12-18T22:58:47.724Z,4.70
2022-12-18T23:02:36.584Z,7.57
2022-12-18T23:06:08.811Z,6.87
2022-12-18T23:09:35.206Z,5.62
2022-12-18T23:13:03.482Z,5.18
2022-12-18T23:16:24.091Z,5.37
2022-12-18T23:20:16.836Z,6.63
2022-12-18T23:23:56.972Z,5.10
2022-12-18T23:27:39.649Z,6.25
2022-12-18T23:31:17.625Z,5.50
2022-12-18T23:34:45.190Z,4.32
2022-12-18T23:38:37.301Z,4.82
2022-12-18T23:42:38.709Z,4.45
2022-12-18T23:45:57.811Z,5.12
2022-12-18T23:49:26.044Z,4.37
2022-12-18T23:52:45.108Z,5.85
2022-12-18T23:56:09.350Z,8.65
2022-12-18T23:59:58.392Z,5.32
